Decoded Metar for KTGI ( in ) (IATA:) | Meteo·Mobile Aviation Weather
aviador You're here:

KTGI Decoded Metar

in
Report Time2019-02-16 06:17:00
UTC Time2019-02-16 06:56:45
Flight Rules vfr VFR
Wind330° at 04 kt
W.Decomp.*RWY 02: 2.6 kt HW 3.1 kt LCW
W.Rank330° ranks 5
Current wind is below 330° avg. (12.0)
Visibility9999 m
Phenomena:N/A
Clouds:Broken 110 Hf
Expected CloudBase > 800 ft AGL from Temp-Dew spread
Ceiling11,000 ft
Temp09°C
Dew Point07°C (87% RH)
AAT6.9°C
QNH1008 hPa
Raw Report
METAR KTGI 160617Z AUTO 33004KT 10SM BKN110 09/07 A2977 RMK AO1=

Extra information for KTGI:More info

Social comments